KCPR/CPR METAR and TAF weather

Enter ICAO airport designator
Station Type Date Time Source
KCPR METAR 2018/04/27 00:53 UTC NOAA

KCPR 270053Z 28006KT 10SM CLR 16/M06 A3019 RMK AO2 SLP202 T01561056


Station Type Date Time Source
KCPR Decoded METAR 2018/04/27 00:53 UTC NOAA

NATRONA COUNTY INTERNATIONAL AIRPORT , WY, United States (KCPR) 42-54N 106-28W 1621M
Apr 26, 2018 - 08:53 PM EDT / 2018.04.27 0053 UTC
Wind: from the W (280 degrees) at 7 MPH (6 KT):0
Visibility: 10 mile(s):0
Sky conditions: clear
Temperature: 60.1 F (15.6 C)
Dew Point: 21.9 F (-5.6 C)
Relative Humidity: 22%
Pressure (altimeter): 30.19 in. Hg (1022 hPa)
ob: KCPR 270053Z 28006KT 10SM CLR 16/M06 A3019 RMK AO2 SLP202 T01561056
cycle: 1

Station Type Date Time Source
KCPR TAF 2018/04/26 18:22 UTC NOAA

TAF KCPR 261720Z 2618/2718 VRB05KT P6SM SCT050
FM270600 24007KT P6SM SKC


Example: see airport list